createdAt,value
2022-09-17T00:03:25.277Z,10.26
2022-09-17T00:08:32.513Z,10.27
2022-09-17T00:13:38.601Z,10.39
2022-09-17T00:18:44.882Z,10.54
2022-09-17T00:23:53.215Z,10.66
2022-09-17T00:29:00.778Z,10.77
2022-09-17T00:34:08.181Z,10.88
2022-09-17T00:39:16.378Z,10.94
2022-09-17T00:44:46.100Z,10.94
2022-09-17T00:49:56.092Z,10.90
2022-09-17T00:55:13.149Z,10.87
2022-09-17T01:00:20.949Z,10.91
2022-09-17T01:05:36.752Z,10.99
2022-09-17T01:11:11.149Z,11.00
2022-09-17T01:16:26.233Z,10.92
2022-09-17T01:21:43.265Z,10.82
2022-09-17T01:27:22.504Z,10.71
2022-09-17T01:32:35.006Z,10.66
2022-09-17T01:37:54.397Z,10.65
2022-09-17T01:43:05.989Z,10.62
2022-09-17T01:48:19.391Z,10.57
2022-09-17T01:53:31.656Z,10.56
2022-09-17T01:58:42.174Z,10.53
2022-09-17T02:03:54.957Z,10.45
2022-09-17T02:09:06.018Z,10.31
2022-09-17T02:14:17.405Z,10.18
2022-09-17T02:19:27.694Z,10.09
2022-09-17T02:24:42.840Z,10.03
2022-09-17T02:29:49.472Z,9.98
2022-09-17T02:34:56.693Z,9.90
2022-09-17T02:40:03.968Z,9.82
2022-09-17T02:45:22.016Z,9.76
2022-09-17T02:50:41.951Z,9.74
2022-09-17T02:55:55.285Z,9.66
2022-09-17T03:01:08.807Z,9.58
2022-09-17T03:06:15.202Z,9.51
2022-09-17T03:11:21.782Z,9.50
2022-09-17T03:16:27.920Z,9.48
2022-09-17T03:21:34.357Z,9.43
2022-09-17T03:26:40.476Z,9.36
2022-09-17T03:31:46.947Z,9.35
2022-09-17T03:36:53.671Z,9.36
2022-09-17T03:41:59.647Z,9.35
2022-09-17T03:47:05.920Z,9.30
2022-09-17T03:52:12.306Z,9.23
2022-09-17T03:57:18.391Z,9.20
2022-09-17T04:02:24.736Z,9.20
2022-09-17T04:07:31.174Z,9.20
2022-09-17T04:12:37.624Z,9.16
2022-09-17T04:17:43.914Z,9.11
2022-09-17T04:22:50.101Z,9.11
2022-09-17T04:27:55.985Z,9.15
2022-09-17T04:33:02.109Z,9.17
2022-09-17T04:38:09.228Z,9.19
2022-09-17T04:43:15.567Z,9.21
2022-09-17T04:48:21.650Z,9.26
2022-09-17T04:53:27.605Z,9.33
2022-09-17T04:58:34.400Z,9.43
2022-09-17T05:03:41.010Z,9.51
2022-09-17T05:08:47.178Z,9.61
2022-09-17T05:13:53.071Z,9.78
2022-09-17T05:18:59.432Z,9.97
2022-09-17T05:24:06.050Z,10.17
2022-09-17T05:29:12.464Z,10.34
2022-09-17T05:34:18.389Z,10.68
2022-09-17T05:39:27.269Z,12.84
2022-09-17T05:44:33.609Z,14.03
2022-09-17T05:49:39.590Z,14.84
2022-09-17T05:54:45.665Z,16.01
2022-09-17T05:59:52.057Z,16.17
2022-09-17T06:05:01.727Z,15.77
2022-09-17T06:10:09.647Z,15.50
2022-09-17T06:15:15.794Z,15.35
2022-09-17T06:20:22.677Z,17.23
2022-09-17T06:25:31.888Z,21.02
2022-09-17T06:30:38.210Z,24.16
2022-09-17T06:35:44.282Z,26.32
2022-09-17T06:40:53.988Z,28.04
2022-09-17T06:46:02.208Z,29.46
2022-09-17T06:51:11.254Z,30.59
2022-09-17T06:56:17.982Z,31.44
2022-09-17T07:01:24.031Z,31.93
2022-09-17T07:06:30.176Z,31.64
2022-09-17T07:11:35.907Z,29.55
2022-09-17T07:16:41.747Z,28.13
2022-09-17T07:21:49.886Z,26.38
2022-09-17T07:26:56.149Z,23.76
2022-09-17T07:32:02.485Z,21.42
2022-09-17T07:37:08.994Z,19.67
2022-09-17T07:42:14.747Z,18.27
2022-09-17T07:47:20.992Z,17.23
2022-09-17T07:52:27.740Z,16.24
2022-09-17T07:57:33.700Z,15.63
2022-09-17T08:02:40.344Z,15.21
2022-09-17T08:07:49.782Z,14.71
2022-09-17T08:12:58.685Z,14.34
2022-09-17T08:18:05.161Z,14.09
2022-09-17T08:23:11.291Z,13.79
2022-09-17T08:28:17.416Z,13.57
2022-09-17T08:33:23.395Z,13.57
2022-09-17T08:38:32.546Z,13.87
2022-09-17T08:43:48.184Z,14.10
2022-09-17T08:49:02.576Z,14.04
2022-09-17T08:54:18.890Z,13.93
2022-09-17T08:59:34.839Z,13.93
2022-09-17T09:05:02.584Z,14.66
2022-09-17T09:10:17.750Z,16.49
2022-09-17T09:15:42.401Z,17.86
2022-09-17T09:20:53.557Z,17.86
2022-09-17T09:26:11.806Z,17.18
2022-09-17T09:31:47.520Z,16.56
2022-09-17T09:36:59.271Z,16.35
2022-09-17T09:42:16.214Z,16.13
2022-09-17T09:47:41.954Z,16.06
2022-09-17T09:52:59.724Z,15.85
2022-09-17T09:58:21.898Z,15.59
2022-09-17T10:03:32.669Z,15.55
2022-09-17T10:08:40.198Z,15.38
2022-09-17T10:13:46.542Z,15.02
2022-09-17T10:19:11.995Z,14.62
2022-09-17T10:24:25.630Z,14.35
2022-09-17T10:29:33.628Z,14.85
2022-09-17T10:34:41.509Z,15.41
2022-09-17T10:39:48.836Z,15.66
2022-09-17T10:44:56.110Z,15.75
2022-09-17T10:55:02.291Z,15.91
2022-09-17T11:00:16.650Z,16.33
2022-09-17T11:05:38.532Z,16.65
2022-09-17T11:10:52.853Z,16.65
2022-09-17T11:16:14.556Z,16.29
2022-09-17T11:21:49.171Z,16.01
2022-09-17T11:27:05.225Z,15.88
2022-09-17T11:32:35.119Z,15.86
2022-09-17T11:37:48.975Z,15.97
2022-09-17T11:42:59.207Z,16.30
2022-09-17T11:48:10.854Z,17.40
2022-09-17T11:53:26.258Z,18.57
2022-09-17T11:58:43.614Z,19.21
2022-09-17T12:03:56.700Z,19.60
2022-09-17T12:09:05.164Z,19.21
2022-09-17T12:14:22.280Z,18.53
2022-09-17T12:19:34.466Z,17.72
2022-09-17T12:24:41.548Z,17.08
2022-09-17T12:30:09.608Z,16.62
2022-09-17T12:35:53.069Z,16.28
2022-09-17T12:41:06.375Z,16.09
2022-09-17T12:46:34.920Z,16.01
2022-09-17T12:51:55.366Z,15.90
2022-09-17T12:57:10.597Z,15.81
2022-09-17T13:02:22.915Z,15.76
2022-09-17T13:08:09.145Z,15.76
2022-09-17T13:13:30.726Z,15.61
2022-09-17T13:18:59.451Z,15.34
2022-09-17T13:24:19.762Z,15.12
2022-09-17T13:29:59.467Z,15.02
2022-09-17T13:35:48.902Z,15.11
2022-09-17T13:41:25.407Z,15.25
2022-09-17T13:46:34.611Z,15.33
2022-09-17T13:51:56.411Z,15.27
2022-09-17T13:57:22.705Z,15.20
2022-09-17T14:02:35.312Z,15.09
2022-09-17T14:07:51.140Z,14.96
2022-09-17T14:13:00.906Z,14.88
2022-09-17T14:18:35.877Z,14.78
2022-09-17T14:23:47.440Z,14.64
2022-09-17T14:29:03.197Z,14.62
2022-09-17T14:34:16.924Z,14.67
2022-09-17T14:39:25.611Z,14.78
2022-09-17T14:44:34.887Z,14.85
2022-09-17T14:49:41.027Z,14.92
2022-09-17T14:54:46.850Z,14.92
2022-09-17T14:59:56.045Z,14.89
2022-09-17T15:05:04.172Z,14.84
2022-09-17T15:10:16.219Z,14.80
2022-09-17T15:15:24.574Z,14.97
2022-09-17T15:20:32.191Z,15.42
2022-09-17T15:25:41.255Z,15.69
2022-09-17T15:30:51.998Z,15.57
2022-09-17T15:36:16.051Z,15.28
2022-09-17T15:41:31.847Z,14.91
2022-09-17T15:46:38.052Z,14.60
2022-09-17T15:51:43.978Z,14.35
2022-09-17T15:56:58.217Z,14.16
2022-09-17T16:02:05.332Z,14.02
2022-09-17T16:07:33.950Z,13.92
2022-09-17T16:12:40.091Z,13.77
2022-09-17T16:17:47.336Z,13.63
2022-09-17T16:22:57.319Z,13.56
2022-09-17T16:28:06.947Z,13.52
2022-09-17T16:33:14.738Z,13.43
2022-09-17T16:38:20.606Z,13.27
2022-09-17T16:43:27.189Z,13.08
2022-09-17T16:48:33.881Z,12.88
2022-09-17T16:53:40.570Z,12.71
2022-09-17T16:58:46.347Z,12.55
2022-09-17T17:03:55.679Z,12.35
2022-09-17T17:09:01.953Z,12.05
2022-09-17T17:14:11.489Z,11.76
2022-09-17T17:19:19.816Z,11.57
2022-09-17T17:24:25.627Z,11.37
2022-09-17T17:29:31.667Z,11.16
2022-09-17T17:34:37.453Z,10.94
2022-09-17T17:39:43.254Z,10.76
2022-09-17T17:44:48.977Z,10.60
2022-09-17T17:49:54.749Z,10.49
2022-09-17T17:55:00.677Z,10.42
2022-09-17T18:00:08.609Z,10.35
2022-09-17T18:05:21.992Z,10.29
2022-09-17T18:10:27.800Z,10.22
2022-09-17T18:15:33.679Z,10.10
2022-09-17T18:20:39.476Z,9.96
2022-09-17T18:25:53.925Z,9.86
2022-09-17T18:31:06.448Z,9.76
2022-09-17T18:36:13.089Z,9.68
2022-09-17T18:41:18.727Z,9.56
2022-09-17T18:46:25.202Z,9.51
2022-09-17T18:51:31.148Z,9.46
2022-09-17T18:56:41.379Z,9.46
2022-09-17T19:01:47.279Z,9.44
2022-09-17T19:06:58.425Z,9.43
2022-09-17T19:12:04.746Z,9.44
2022-09-17T19:17:10.599Z,9.50
2022-09-17T19:22:18.498Z,9.51
2022-09-17T19:27:29.682Z,9.52
2022-09-17T19:32:35.581Z,9.56
2022-09-17T19:37:41.829Z,9.57
2022-09-17T19:42:54.030Z,9.44
2022-09-17T19:48:01.648Z,9.31
2022-09-17T19:53:07.604Z,9.18
2022-09-17T19:58:13.675Z,9.08
2022-09-17T20:03:19.670Z,8.97
2022-09-17T20:08:25.733Z,8.88
2022-09-17T20:13:31.656Z,8.85
2022-09-17T20:18:38.207Z,8.80
2022-09-17T20:23:44.143Z,8.75
2022-09-17T20:28:51.587Z,8.75
2022-09-17T20:34:01.128Z,8.76
2022-09-17T20:39:14.275Z,8.81
2022-09-17T20:44:23.789Z,8.81
2022-09-17T20:49:29.839Z,8.84
2022-09-17T20:54:35.919Z,8.97
2022-09-17T20:59:56.676Z,9.18
2022-09-17T21:05:02.509Z,9.31
2022-09-17T21:10:10.292Z,9.43
2022-09-17T21:15:16.276Z,9.56
2022-09-17T21:20:21.962Z,9.69
2022-09-17T21:25:28.335Z,9.73
2022-09-17T21:30:34.400Z,9.80
2022-09-17T21:35:40.422Z,9.88
2022-09-17T21:40:55.872Z,9.95
2022-09-17T21:46:04.999Z,9.97
2022-09-17T21:51:12.878Z,10.02
2022-09-17T21:56:20.061Z,10.07
2022-09-17T22:01:27.900Z,10.08
2022-09-17T22:06:33.979Z,10.08
2022-09-17T22:11:39.860Z,10.11
2022-09-17T22:16:47.468Z,10.15
2022-09-17T22:21:55.349Z,10.15
2022-09-17T22:27:02.395Z,10.12
2022-09-17T22:32:08.214Z,10.14
2022-09-17T22:37:13.986Z,10.17
2022-09-17T22:42:19.805Z,10.15
2022-09-17T22:47:25.582Z,10.09
2022-09-17T22:52:31.242Z,10.06
2022-09-17T22:57:37.112Z,10.06
2022-09-17T23:02:42.915Z,10.06
2022-09-17T23:07:48.657Z,10.01
2022-09-17T23:12:55.242Z,9.99
2022-09-17T23:18:01.217Z,10.00
2022-09-17T23:23:07.476Z,9.98
2022-09-17T23:28:13.371Z,9.95
2022-09-17T23:33:19.133Z,9.93
2022-09-17T23:38:24.874Z,9.96
2022-09-17T23:43:30.526Z,9.96
2022-09-17T23:48:36.772Z,9.94
2022-09-17T23:53:42.618Z,9.96
2022-09-17T23:58:49.007Z,9.97
